Time;durP1;ratioP1;P1;durP2;ratioP2;P2;SDS_P1;SDS_P2;PMS_P1;PMS_P2;Temp;Humidity;BMP_temperature;BMP_pressure;BME280_temperature;BME280_humidity;BME280_pressure;Samples;Min_cycle;Max_cycle;Signal;HPM_P1;HPM_P2
2023/11/26 00:00:40;;;;;;;16.67;5.65;;;1.50;99.90;;;;;;5059886;28;20029;-75
2023/11/26 00:03:06;;;;;;;11.20;5.30;;;1.50;99.90;;;;;;5061316;28;20124;-73
2023/11/26 00:05:32;;;;;;;14.77;5.68;;;1.50;99.90;;;;;;5060812;28;20090;-73
2023/11/26 00:07:57;;;;;;;11.23;5.45;;;1.50;99.90;;;;;;5061395;28;20025;-74
2023/11/26 00:10:23;;;;;;;12.35;5.22;;;1.50;99.90;;;;;;5058860;28;20033;-72
2023/11/26 00:12:48;;;;;;;14.82;5.13;;;1.40;99.90;;;;;;5059790;28;20128;-74
2023/11/26 00:15:14;;;;;;;11.40;5.20;;;1.50;99.90;;;;;;5060000;28;20025;-74
2023/11/26 00:17:40;;;;;;;15.93;5.82;;;1.50;99.90;;;;;;5059454;28;20041;-73
2023/11/26 00:20:06;;;;;;;14.73;5.88;;;1.50;99.90;;;;;;5060935;28;20036;-73
2023/11/26 00:22:32;;;;;;;12.27;5.20;;;1.40;99.90;;;;;;5059921;28;20044;-75
2023/11/26 00:24:58;;;;;;;14.48;5.72;;;1.40;99.90;;;;;;5060698;28;20025;-73
2023/11/26 00:27:25;;;;;;;12.65;5.38;;;1.40;99.90;;;;;;5061035;28;20055;-76
2023/11/26 00:29:51;;;;;;;13.02;5.45;;;1.40;99.90;;;;;;5061108;28;20899;-74
2023/11/26 00:32:17;;;;;;;12.02;4.65;;;1.40;99.90;;;;;;5059299;28;20045;-73
2023/11/26 00:34:42;;;;;;;10.45;4.85;;;1.40;99.90;;;;;;5060534;28;20048;-75
2023/11/26 00:37:08;;;;;;;15.98;5.38;;;1.40;99.90;;;;;;5059382;28;21023;-76
2023/11/26 00:39:34;;;;;;;11.43;4.75;;;1.40;99.90;;;;;;5060073;28;20045;-74
2023/11/26 00:41:59;;;;;;;13.35;5.90;;;1.40;99.90;;;;;;5060407;28;20537;-75
2023/11/26 00:44:25;;;;;;;10.48;5.07;;;1.50;99.90;;;;;;5061057;28;20027;-74
2023/11/26 00:46:55;;;;;;;11.32;5.50;;;1.50;99.90;;;;;;5059191;28;20025;-74
2023/11/26 00:49:21;;;;;;;11.32;5.43;;;1.40;99.90;;;;;;5060620;28;20025;-74
2023/11/26 00:51:47;;;;;;;13.05;5.65;;;1.50;99.90;;;;;;5060681;28;20071;-74
2023/11/26 00:54:13;;;;;;;10.85;5.32;;;1.50;99.90;;;;;;5059554;28;20037;-74
2023/11/26 00:56:39;;;;;;;13.27;4.97;;;1.50;99.90;;;;;;5059227;28;20043;-74
2023/11/26 00:59:04;;;;;;;10.95;5.07;;;1.50;99.90;;;;;;5058936;28;20029;-76
2023/11/26 01:01:31;;;;;;;11.80;4.70;;;1.60;99.90;;;;;;5060050;28;20107;-76
2023/11/26 01:03:57;;;;;;;12.77;5.32;;;1.60;99.90;;;;;;5060828;28;20025;-73
2023/11/26 01:06:23;;;;;;;12.90;5.65;;;1.70;99.90;;;;;;5060466;28;20040;-74
2023/11/26 01:08:49;;;;;;;14.35;5.05;;;1.70;99.90;;;;;;5058367;28;20131;-73
2023/11/26 01:11:15;;;;;;;14.45;5.72;;;1.70;99.90;;;;;;5063997;28;20040;-75
2023/11/26 01:13:41;;;;;;;9.35;5.20;;;1.70;99.90;;;;;;5062717;28;21349;-74
2023/11/26 01:16:07;;;;;;;15.52;5.63;;;1.70;99.90;;;;;;5064019;28;20032;-74
2023/11/26 01:18:33;;;;;;;14.80;5.93;;;1.70;99.90;;;;;;5064244;28;20131;-75
2023/11/26 01:20:59;;;;;;;16.73;6.43;;;1.70;99.90;;;;;;5062119;28;20067;-73
2023/11/26 01:23:25;;;;;;;13.18;5.72;;;1.70;99.90;;;;;;5064003;28;20037;-75
2023/11/26 01:25:50;;;;;;;14.43;5.60;;;1.70;99.90;;;;;;5064443;28;20047;-76
2023/11/26 01:28:16;;;;;;;16.80;5.80;;;1.70;99.90;;;;;;5064143;28;20092;-73
2023/11/26 01:30:42;;;;;;;14.50;5.07;;;1.70;99.90;;;;;;5064107;28;20029;-75
2023/11/26 01:33:07;;;;;;;14.45;5.47;;;1.70;99.90;;;;;;5062389;28;20025;-74
2023/11/26 01:35:34;;;;;;;24.83;6.50;;;1.70;99.90;;;;;;5063825;28;20025;-76
2023/11/26 01:38:00;;;;;;;14.20;5.13;;;1.80;99.90;;;;;;5063920;28;20025;-75
2023/11/26 01:40:26;;;;;;;13.40;5.80;;;1.70;99.90;;;;;;5064048;28;20060;-75
2023/11/26 01:42:51;;;;;;;15.48;5.97;;;1.70;99.90;;;;;;5063674;28;20104;-74
2023/11/26 01:45:17;;;;;;;15.63;6.25;;;1.70;99.90;;;;;;5064216;28;20501;-74
2023/11/26 01:47:43;;;;;;;13.40;5.53;;;1.70;99.90;;;;;;5063550;28;20077;-74
2023/11/26 01:50:19;;;;;;;11.18;5.07;;;1.70;99.90;;;;;;5063762;28;20017;-73
2023/11/26 01:52:47;;;;;;;11.18;5.00;;;1.70;99.90;;;;;;5062950;28;20029;-74
2023/11/26 01:55:12;;;;;;;9.85;5.15;;;1.70;99.90;;;;;;5063399;28;20025;-75
2023/11/26 01:57:39;;;;;;;15.05;5.25;;;1.70;99.90;;;;;;5063441;28;20079;-76
2023/11/26 02:00:06;;;;;;;11.25;5.18;;;1.60;99.90;;;;;;5062311;28;20025;-74
2023/11/26 02:02:32;;;;;;;10.25;5.13;;;1.70;99.90;;;;;;5063169;28;20088;-75
2023/11/26 02:04:58;;;;;;;11.68;5.20;;;1.60;99.90;;;;;;5061968;28;20025;-75
2023/11/26 02:07:26;;;;;;;14.80;5.43;;;1.60;99.90;;;;;;5062344;28;20040;-73
2023/11/26 02:09:53;;;;;;;8.55;4.88;;;1.60;99.90;;;;;;5062360;28;20041;-75
2023/11/26 02:12:19;;;;;;;13.18;5.55;;;1.60;99.90;;;;;;5063278;28;20032;-75
2023/11/26 02:14:48;;;;;;;12.02;5.18;;;1.60;99.90;;;;;;5063436;28;20123;-74
2023/11/26 02:17:15;;;;;;;10.57;5.03;;;1.60;99.90;;;;;;5060901;28;20124;-74
2023/11/26 02:19:41;;;;;;;10.85;5.28;;;1.60;99.90;;;;;;5063334;28;20025;-74
2023/11/26 02:22:08;;;;;;;15.38;5.32;;;1.60;99.90;;;;;;5060978;28;20021;-73
2023/11/26 02:24:46;;;;;;;12.00;4.75;;;1.60;99.90;;;;;;5062756;28;20520;-73
2023/11/26 02:27:13;;;;;;;13.43;5.35;;;1.60;99.90;;;;;;5063078;28;20037;-73
2023/11/26 02:29:38;;;;;;;16.52;5.15;;;1.60;99.90;;;;;;5062723;28;20043;-76
2023/11/26 02:32:06;;;;;;;11.52;4.93;;;1.60;99.90;;;;;;5061548;28;20077;-74
2023/11/26 02:34:32;;;;;;;12.63;5.40;;;1.60;99.90;;;;;;5062983;28;20029;-74
2023/11/26 02:36:58;;;;;;;14.18;5.22;;;1.60;99.90;;;;;;5062311;28;20055;-76
2023/11/26 02:39:24;;;;;;;14.48;6.00;;;1.60;99.90;;;;;;5061741;28;20029;-75
2023/11/26 02:41:49;;;;;;;13.93;5.45;;;1.60;99.90;;;;;;5061685;28;20040;-75
2023/11/26 02:44:15;;;;;;;12.25;5.28;;;1.60;99.90;;;;;;5062666;28;20071;-74
2023/11/26 02:46:42;;;;;;;9.55;4.93;;;1.60;99.90;;;;;;5062836;28;20025;-75
2023/11/26 02:49:08;;;;;;;17.73;5.95;;;1.60;99.90;;;;;;5061558;28;20060;-76
2023/11/26 02:51:35;;;;;;;14.23;5.40;;;1.70;99.90;;;;;;5062050;28;20032;-75
2023/11/26 02:54:00;;;;;;;12.50;4.80;;;1.60;99.90;;;;;;5061365;28;20040;-74
2023/11/26 02:56:26;;;;;;;13.27;5.53;;;1.70;99.90;;;;;;5059984;28;20040;-75
2023/11/26 02:58:52;;;;;;;12.52;4.65;;;1.70;99.90;;;;;;5060392;28;20028;-77
2023/11/26 03:01:19;;;;;;;9.73;4.70;;;1.70;99.90;;;;;;5061358;28;20028;-74
2023/11/26 03:03:47;;;;;;;13.07;5.43;;;1.70;99.90;;;;;;5062604;28;20029;-76
2023/11/26 03:06:19;;;;;;;11.65;5.22;;;1.70;99.90;;;;;;5062053;28;20065;-76
2023/11/26 03:08:45;;;;;;;15.20;5.20;;;1.70;99.90;;;;;;5062412;28;20131;-76
2023/11/26 03:13:58;;;;;;;12.32;5.18;;;1.70;99.90;;;;;;5066089;28;20037;-76
2023/11/26 03:16:26;;;;;;;14.65;5.50;;;1.70;99.90;;;;;;5062176;28;20040;-75
2023/11/26 03:18:52;;;;;;;10.50;5.13;;;1.70;99.90;;;;;;5061690;28;20024;-76
2023/11/26 03:21:26;;;;;;;10.05;5.13;;;1.70;99.90;;;;;;5061007;28;20346;-76
2023/11/26 03:23:52;;;;;;;11.10;5.05;;;1.60;99.90;;;;;;5061002;28;20060;-75
2023/11/26 03:26:25;;;;;;;13.30;5.38;;;1.50;99.90;;;;;;5062014;28;20158;-74
2023/11/26 03:28:51;;;;;;;14.25;5.80;;;1.40;99.90;;;;;;5062211;28;20153;-77
2023/11/26 03:31:17;;;;;;;10.43;5.38;;;1.40;99.90;;;;;;5060822;28;20064;-77
2023/11/26 03:33:42;;;;;;;15.35;6.03;;;1.40;99.90;;;;;;5060471;28;20021;-75
2023/11/26 03:36:10;;;;;;;15.48;6.25;;;1.30;99.90;;;;;;5061954;28;20037;-76
2023/11/26 03:38:35;;;;;;;11.05;5.20;;;1.20;99.90;;;;;;5061228;28;20031;-77
2023/11/26 03:41:01;;;;;;;12.05;5.25;;;1.20;99.90;;;;;;5061368;28;20057;-74
2023/11/26 03:43:27;;;;;;;19.40;5.90;;;1.10;99.90;;;;;;5061437;28;20021;-74
2023/11/26 03:45:52;;;;;;;14.73;5.40;;;1.10;99.90;;;;;;5060847;28;20063;-74
2023/11/26 03:48:18;;;;;;;10.63;5.63;;;1.10;99.90;;;;;;5061052;28;20075;-77
2023/11/26 03:50:45;;;;;;;11.68;6.10;;;1.10;99.90;;;;;;5061765;28;20021;-74
2023/11/26 03:53:10;;;;;;;13.57;5.63;;;1.10;99.90;;;;;;5060653;28;20025;-76
2023/11/26 03:55:36;;;;;;;12.23;5.40;;;1.10;99.90;;;;;;5060052;28;20032;-76
2023/11/26 03:58:01;;;;;;;13.00;5.50;;;1.00;99.90;;;;;;5060534;28;20028;-74
2023/11/26 04:00:27;;;;;;;12.85;5.78;;;1.00;99.90;;;;;;5059912;28;20017;-76
2023/11/26 04:02:52;;;;;;;18.00;5.63;;;1.00;99.90;;;;;;5059881;28;20029;-74
2023/11/26 04:05:19;;;;;;;11.20;5.25;;;1.00;99.90;;;;;;5060379;28;20367;-75
2023/11/26 04:07:46;;;;;;;11.57;5.43;;;1.00;99.90;;;;;;5061036;28;20037;-76
2023/11/26 04:10:12;;;;;;;14.40;5.40;;;1.00;99.90;;;;;;5061269;28;20059;-76
2023/11/26 04:12:39;;;;;;;10.38;5.18;;;1.00;99.90;;;;;;5058639;28;20029;-76
2023/11/26 04:15:06;;;;;;;13.15;5.63;;;1.00;99.90;;;;;;5059468;28;20103;-77
2023/11/26 04:17:33;;;;;;;12.20;5.10;;;1.10;99.90;;;;;;5060685;28;20029;-76
2023/11/26 04:20:03;;;;;;;10.48;5.22;;;1.10;99.90;;;;;;5059328;28;20388;-76
2023/11/26 04:22:29;;;;;;;11.25;5.38;;;1.10;99.90;;;;;;5060547;28;20489;-74
2023/11/26 04:24:55;;;;;;;16.45;5.43;;;1.10;99.90;;;;;;5059426;28;20084;-73
2023/11/26 04:27:21;;;;;;;11.40;5.25;;;1.10;99.90;;;;;;5061138;28;20063;-75
2023/11/26 04:29:47;;;;;;;15.43;5.53;;;1.10;99.90;;;;;;5060416;28;20032;-72
2023/11/26 04:32:13;;;;;;;15.95;6.13;;;1.10;99.90;;;;;;5060944;28;20029;-74
2023/11/26 04:34:40;;;;;;;12.82;5.57;;;1.20;99.90;;;;;;5057699;28;20032;-73
2023/11/26 04:37:08;;;;;;;14.25;5.55;;;1.10;99.90;;;;;;5059027;28;20474;-74
2023/11/26 04:39:34;;;;;;;12.38;5.53;;;1.10;99.90;;;;;;5060817;28;20064;-73
2023/11/26 04:42:01;;;;;;;15.90;5.35;;;1.10;99.90;;;;;;5060614;28;20044;-73
2023/11/26 04:44:27;;;;;;;11.65;5.53;;;1.10;99.90;;;;;;5059836;28;20016;-75
2023/11/26 04:46:53;;;;;;;12.25;5.05;;;1.10;99.90;;;;;;5060036;28;20424;-73
2023/11/26 04:49:23;;;;;;;10.52;5.45;;;1.10;99.90;;;;;;5060518;28;20051;-74
2023/11/26 04:51:49;;;;;;;12.50;5.05;;;1.10;99.90;;;;;;5060607;28;20386;-75
2023/11/26 04:54:15;;;;;;;12.52;5.25;;;1.10;99.90;;;;;;5061015;28;20025;-74
2023/11/26 04:56:41;;;;;;;16.90;6.22;;;1.00;99.90;;;;;;5060546;28;20043;-74
2023/11/26 04:59:07;;;;;;;18.05;6.50;;;1.00;99.90;;;;;;5057904;28;20063;-73
2023/11/26 05:01:48;;;;;;;14.93;6.75;;;1.00;99.90;;;;;;5060084;28;20056;-75
2023/11/26 05:04:15;;;;;;;13.13;6.28;;;1.10;99.90;;;;;;5059373;28;20066;-75
2023/11/26 05:06:44;;;;;;;20.00;6.85;;;1.10;99.90;;;;;;5058936;28;20032;-76
2023/11/26 05:09:13;;;;;;;18.15;7.43;;;1.10;99.90;;;;;;5060516;28;20021;-75
2023/11/26 05:11:45;;;;;;;19.67;6.25;;;1.00;99.90;;;;;;5060076;28;20151;-75
2023/11/26 05:14:11;;;;;;;17.60;6.80;;;1.00;99.90;;;;;;5059116;28;20040;-76
2023/11/26 05:16:38;;;;;;;16.70;6.55;;;0.90;99.90;;;;;;5060349;28;20036;-75
2023/11/26 05:19:04;;;;;;;14.95;6.68;;;0.90;99.90;;;;;;5060335;28;20025;-73
2023/11/26 05:21:29;;;;;;;13.15;6.82;;;0.90;99.90;;;;;;5059728;28;20025;-75
2023/11/26 05:23:55;;;;;;;17.48;7.50;;;0.90;99.90;;;;;;5060723;28;20025;-75
2023/11/26 05:26:21;;;;;;;16.40;7.10;;;0.90;99.90;;;;;;5060199;28;20036;-75
2023/11/26 05:28:47;;;;;;;16.10;8.27;;;0.90;99.90;;;;;;5058924;28;20057;-74
2023/11/26 05:31:14;;;;;;;22.00;9.32;;;0.90;99.90;;;;;;5060412;28;20546;-74
2023/11/26 05:33:40;;;;;;;26.83;9.48;;;1.00;99.90;;;;;;5060225;28;20032;-76
2023/11/26 05:36:07;;;;;;;27.38;9.20;;;1.00;99.90;;;;;;5060100;28;20033;-75
2023/11/26 05:38:32;;;;;;;22.92;8.50;;;1.00;99.90;;;;;;5060184;28;20100;-75
2023/11/26 05:40:58;;;;;;;26.58;9.85;;;1.00;99.90;;;;;;5059747;28;20142;-75
2023/11/26 05:43:25;;;;;;;18.02;9.48;;;1.00;99.90;;;;;;5060091;28;20017;-74
2023/11/26 05:45:52;;;;;;;23.17;10.77;;;1.00;99.90;;;;;;5060302;28;20017;-72
2023/11/26 05:48:18;;;;;;;21.88;9.90;;;1.10;99.90;;;;;;5060127;28;20029;-74
2023/11/26 05:50:43;;;;;;;24.33;9.80;;;1.10;99.90;;;;;;5058738;28;20068;-74
2023/11/26 05:53:09;;;;;;;23.33;10.35;;;1.20;99.90;;;;;;5060232;28;20041;-75
2023/11/26 05:55:34;;;;;;;21.52;10.68;;;1.20;99.90;;;;;;5059606;28;20100;-73
2023/11/26 05:58:00;;;;;;;25.77;10.65;;;1.20;99.90;;;;;;5063417;28;20068;-76
2023/11/26 06:00:26;;;;;;;25.38;11.02;;;1.20;99.90;;;;;;5061198;28;20025;-74
2023/11/26 06:02:52;;;;;;;23.27;11.23;;;1.20;99.90;;;;;;5063670;28;20044;-75
2023/11/26 06:05:18;;;;;;;21.38;11.32;;;1.20;99.90;;;;;;5063285;28;20481;-74
2023/11/26 06:07:43;;;;;;;19.50;10.15;;;1.20;99.90;;;;;;5062543;28;20051;-73
2023/11/26 06:10:09;;;;;;;22.85;10.32;;;1.20;99.90;;;;;;5061723;28;20029;-74
2023/11/26 06:12:35;;;;;;;26.15;11.57;;;1.20;99.90;;;;;;5060755;28;20056;-74
2023/11/26 06:15:01;;;;;;;24.65;11.48;;;1.30;99.90;;;;;;5063401;28;20029;-76
2023/11/26 06:17:27;;;;;;;20.30;10.82;;;1.30;99.90;;;;;;5062162;28;20092;-76
2023/11/26 06:19:53;;;;;;;26.80;11.77;;;1.30;99.90;;;;;;5063954;28;20059;-76
2023/11/26 06:22:18;;;;;;;27.83;11.40;;;1.30;99.90;;;;;;5063974;28;20094;-75
2023/11/26 06:24:45;;;;;;;24.27;11.65;;;1.40;99.90;;;;;;5062301;28;20025;-75
2023/11/26 06:27:11;;;;;;;27.67;12.93;;;1.40;99.90;;;;;;5062592;28;21015;-75
2023/11/26 06:29:37;;;;;;;32.75;14.75;;;1.40;99.90;;;;;;5062871;28;20045;-78
2023/11/26 06:32:04;;;;;;;24.80;13.57;;;1.40;99.90;;;;;;5059691;28;20112;-77
2023/11/26 06:34:30;;;;;;;32.58;14.35;;;1.40;99.90;;;;;;5061387;28;20079;-75
2023/11/26 06:36:56;;;;;;;31.05;14.05;;;1.40;99.90;;;;;;5062731;28;20505;-75
2023/11/26 06:39:24;;;;;;;31.35;14.43;;;1.40;99.90;;;;;;5063266;28;20029;-77
2023/11/26 06:41:50;;;;;;;26.70;13.57;;;1.40;99.90;;;;;;5063326;28;20052;-78
2023/11/26 06:44:16;;;;;;;24.67;13.32;;;1.40;99.90;;;;;;5061556;28;20025;-75
2023/11/26 06:46:42;;;;;;;27.38;14.90;;;1.40;99.90;;;;;;5062207;28;20036;-75
2023/11/26 06:49:08;;;;;;;30.08;15.00;;;1.40;99.90;;;;;;5060838;28;20144;-75
2023/11/26 06:51:33;;;;;;;36.72;15.02;;;1.40;99.90;;;;;;5061405;28;20124;-75
2023/11/26 06:53:59;;;;;;;33.65;16.50;;;1.30;99.90;;;;;;5062619;28;20043;-74
2023/11/26 06:56:25;;;;;;;31.80;16.20;;;1.30;99.90;;;;;;5062035;28;20047;-73
2023/11/26 06:58:51;;;;;;;31.27;15.70;;;1.30;99.90;;;;;;5059453;28;20033;-77
2023/11/26 07:01:16;;;;;;;34.15;15.93;;;1.30;99.90;;;;;;5061168;28;20037;-74
2023/11/26 07:03:43;;;;;;;31.95;15.88;;;1.30;99.90;;;;;;5061067;28;20021;-73
2023/11/26 07:06:10;;;;;;;29.65;14.75;;;1.30;99.90;;;;;;5058881;28;20053;-75
2023/11/26 07:08:38;;;;;;;28.80;15.43;;;1.20;99.90;;;;;;5061772;28;20044;-75
2023/11/26 07:11:17;;;;;;;30.10;14.70;;;1.30;99.90;;;;;;5056208;28;20029;-77
2023/11/26 07:13:43;;;;;;;28.67;13.98;;;1.40;99.90;;;;;;5061591;28;20025;-75
2023/11/26 07:16:09;;;;;;;26.98;13.48;;;1.30;99.90;;;;;;5074939;28;20052;-77
2023/11/26 07:18:34;;;;;;;26.67;12.90;;;1.30;99.90;;;;;;5062347;28;20071;-77
2023/11/26 07:21:00;;;;;;;28.95;13.18;;;1.30;99.90;;;;;;5060455;28;20025;-77
2023/11/26 07:23:26;;;;;;;25.67;12.60;;;1.30;99.90;;;;;;5062958;28;20020;-78
2023/11/26 07:25:52;;;;;;;25.90;13.45;;;1.30;99.90;;;;;;5058172;28;20040;-74
2023/11/26 07:28:17;;;;;;;28.40;14.23;;;1.30;99.90;;;;;;5059553;28;20068;-76
2023/11/26 07:30:44;;;;;;;25.73;13.88;;;1.30;99.90;;;;;;5058929;28;20041;-77
2023/11/26 07:33:10;;;;;;;29.73;14.48;;;1.30;99.90;;;;;;5059560;28;20024;-75
2023/11/26 07:35:37;;;;;;;29.98;15.52;;;1.30;99.90;;;;;;5059213;28;20654;-75
2023/11/26 07:38:03;;;;;;;32.67;15.25;;;1.20;99.90;;;;;;5062439;28;20033;-75
2023/11/26 07:40:30;;;;;;;29.00;14.20;;;1.20;99.90;;;;;;5061242;28;20017;-76
2023/11/26 07:42:55;;;;;;;27.42;13.77;;;1.20;99.90;;;;;;5061474;28;20111;-76
2023/11/26 07:45:21;;;;;;;35.08;14.15;;;1.20;99.90;;;;;;5061391;28;20115;-77
2023/11/26 07:47:47;;;;;;;28.17;13.98;;;1.20;99.90;;;;;;5062128;28;20017;-73
2023/11/26 07:50:12;;;;;;;32.00;13.88;;;1.30;99.90;;;;;;5059616;28;20033;-75
2023/11/26 07:52:39;;;;;;;26.23;12.18;;;1.30;99.90;;;;;;5061850;28;20425;-74
2023/11/26 07:55:05;;;;;;;37.05;13.60;;;1.30;99.90;;;;;;5061670;28;20017;-73
2023/11/26 07:57:31;;;;;;;31.65;13.55;;;1.40;99.90;;;;;;5057901;28;20053;-74
2023/11/26 07:59:58;;;;;;;29.30;12.77;;;1.40;99.90;;;;;;5060791;28;20024;-74
2023/11/26 08:02:24;;;;;;;28.48;11.70;;;1.40;99.90;;;;;;5059723;28;20060;-73
2023/11/26 08:04:53;;;;;;;26.83;11.68;;;1.40;99.90;;;;;;5058419;28;20405;-73
2023/11/26 08:07:26;;;;;;;24.60;11.98;;;1.50;99.90;;;;;;5061631;28;20075;-73
2023/11/26 08:09:54;;;;;;;23.70;11.98;;;1.60;99.90;;;;;;5060392;28;20029;-74
2023/11/26 08:12:23;;;;;;;23.98;12.75;;;1.60;99.90;;;;;;5061932;28;20028;-75
2023/11/26 08:14:52;;;;;;;20.85;11.25;;;1.70;99.90;;;;;;5059741;28;20061;-77
2023/11/26 08:17:19;;;;;;;22.00;11.30;;;1.70;99.90;;;;;;5061458;28;20033;-78
2023/11/26 08:19:45;;;;;;;18.95;11.82;;;1.80;99.90;;;;;;5057167;28;20032;-77
2023/11/26 08:22:12;;;;;;;20.23;11.57;;;1.80;99.90;;;;;;5058051;28;20021;-74
2023/11/26 08:24:42;;;;;;;23.15;10.82;;;1.80;99.90;;;;;;5061390;28;20485;-75
2023/11/26 08:27:17;;;;;;;25.95;11.88;;;1.90;99.90;;;;;;5060520;28;20053;-77
2023/11/26 08:29:43;;;;;;;21.77;11.73;;;1.90;99.90;;;;;;5058540;28;20025;-75
2023/11/26 08:32:09;;;;;;;22.30;11.63;;;2.00;99.90;;;;;;5059408;28;20074;-77
2023/11/26 08:34:38;;;;;;;24.17;11.82;;;2.00;99.90;;;;;;5059834;28;20190;-76
2023/11/26 08:37:06;;;;;;;22.63;11.93;;;2.00;99.90;;;;;;5057253;28;20032;-75
2023/11/26 08:39:34;;;;;;;22.75;10.93;;;2.00;99.90;;;;;;5059034;28;20434;-75
2023/11/26 08:42:04;;;;;;;20.48;11.13;;;2.10;99.90;;;;;;5060203;28;20128;-76
2023/11/26 08:44:33;;;;;;;23.30;10.68;;;2.10;99.90;;;;;;5059751;28;20078;-74
2023/11/26 08:46:59;;;;;;;17.27;10.55;;;2.20;99.90;;;;;;5059728;28;20442;-76
2023/11/26 08:49:27;;;;;;;22.15;10.85;;;2.20;99.90;;;;;;5058652;28;20088;-77
2023/11/26 08:51:56;;;;;;;19.40;10.57;;;2.30;99.90;;;;;;5059836;28;20032;-76
2023/11/26 08:54:22;;;;;;;23.92;10.52;;;2.30;99.90;;;;;;5059801;28;20025;-75
2023/11/26 08:56:49;;;;;;;17.42;10.13;;;2.30;99.90;;;;;;5060240;28;20047;-75
2023/11/26 08:59:14;;;;;;;22.00;10.48;;;2.40;99.90;;;;;;5058961;28;20032;-77
2023/11/26 09:01:40;;;;;;;17.42;9.98;;;2.40;99.90;;;;;;5057337;28;20032;-73
2023/11/26 09:04:07;;;;;;;20.90;10.02;;;2.50;99.90;;;;;;5058181;28;20040;-75
2023/11/26 09:06:33;;;;;;;19.25;10.13;;;2.50;99.90;;;;;;5059540;28;20036;-75
2023/11/26 09:08:58;;;;;;;16.48;10.07;;;2.50;99.90;;;;;;5055395;28;20029;-74
2023/11/26 09:11:26;;;;;;;24.75;9.85;;;2.60;99.90;;;;;;5060038;28;20059;-76
2023/11/26 09:13:52;;;;;;;17.58;9.50;;;2.60;99.90;;;;;;5056678;28;21558;-74
2023/11/26 09:16:19;;;;;;;16.65;9.95;;;2.70;99.90;;;;;;5056369;28;20447;-74
2023/11/26 09:18:45;;;;;;;18.30;10.05;;;2.60;99.90;;;;;;5057683;28;20053;-74
2023/11/26 09:21:12;;;;;;;17.98;9.35;;;2.70;99.90;;;;;;5055132;28;20029;-75
2023/11/26 09:23:43;;;;;;;20.02;10.30;;;2.70;99.90;;;;;;5056618;28;20031;-75
2023/11/26 09:26:13;;;;;;;16.98;9.80;;;2.80;99.90;;;;;;5058745;28;20021;-75
2023/11/26 09:28:38;;;;;;;17.15;9.73;;;2.80;99.90;;;;;;5059028;28;20036;-75
2023/11/26 09:31:05;;;;;;;17.75;9.70;;;2.80;99.90;;;;;;5056624;28;20039;-77
2023/11/26 09:33:31;;;;;;;21.02;10.00;;;2.80;99.90;;;;;;5059253;28;20017;-74
2023/11/26 09:35:57;;;;;;;21.88;9.75;;;2.90;99.90;;;;;;5064594;28;20021;-73
2023/11/26 09:38:23;;;;;;;15.57;9.52;;;2.80;99.90;;;;;;5063006;28;20032;-75
2023/11/26 09:40:49;;;;;;;16.40;9.35;;;3.00;99.90;;;;;;5060435;28;20087;-77
2023/11/26 09:43:16;;;;;;;17.88;9.88;;;3.00;99.90;;;;;;5062758;28;20037;-73
2023/11/26 09:45:45;;;;;;;19.23;8.75;;;3.00;99.90;;;;;;5063918;28;20032;-76
2023/11/26 09:48:10;;;;;;;16.38;9.23;;;3.00;99.90;;;;;;5063403;28;20063;-76
2023/11/26 09:50:36;;;;;;;18.70;9.88;;;3.00;99.90;;;;;;5064113;28;20103;-77
2023/11/26 09:53:03;;;;;;;16.60;9.63;;;3.00;99.90;;;;;;5063799;28;20017;-76
2023/11/26 09:55:37;;;;;;;23.38;10.15;;;3.00;99.90;;;;;;5061546;28;20029;-75
2023/11/26 09:58:03;;;;;;;17.88;9.43;;;3.10;99.90;;;;;;5062128;28;20041;-76
2023/11/26 10:00:30;;;;;;;19.02;10.05;;;3.10;99.90;;;;;;5061677;28;20047;-76
2023/11/26 10:03:01;;;;;;;19.40;9.90;;;3.10;99.90;;;;;;5064091;28;20036;-76
2023/11/26 10:05:26;;;;;;;16.85;9.25;;;3.10;99.90;;;;;;5063870;28;20025;-76
2023/11/26 10:07:54;;;;;;;15.02;9.43;;;3.10;99.90;;;;;;5062776;28;20596;-76
2023/11/26 10:10:23;;;;;;;17.50;9.70;;;3.10;99.90;;;;;;5061964;28;20051;-74
2023/11/26 10:12:58;;;;;;;19.38;9.60;;;3.10;99.90;;;;;;5063800;28;20115;-74
2023/11/26 10:15:26;;;;;;;20.45;11.02;;;3.10;99.90;;;;;;5063200;28;20039;-77
2023/11/26 10:18:03;;;;;;;21.00;11.32;;;3.20;99.90;;;;;;5061670;28;20051;-74
2023/11/26 10:20:29;;;;;;;18.95;10.50;;;3.20;99.90;;;;;;5061357;28;20024;-76
2023/11/26 10:22:56;;;;;;;25.35;10.48;;;3.20;99.90;;;;;;5061870;28;20057;-77
2023/11/26 10:25:24;;;;;;;18.73;10.25;;;3.20;99.90;;;;;;5063923;28;20462;-76
2023/11/26 10:27:50;;;;;;;17.83;10.05;;;3.30;99.90;;;;;;5061412;28;20021;-75
2023/11/26 10:30:24;;;;;;;22.48;10.88;;;3.30;99.90;;;;;;5060429;28;20021;-74
2023/11/26 10:32:56;;;;;;;18.90;10.73;;;3.40;99.90;;;;;;5062966;28;20039;-77
2023/11/26 10:35:23;;;;;;;22.80;10.18;;;3.40;99.90;;;;;;5059817;28;20045;-76
2023/11/26 10:37:50;;;;;;;21.88;10.18;;;3.40;99.90;;;;;;5062264;28;20037;-75
2023/11/26 10:40:15;;;;;;;18.35;10.70;;;3.40;99.90;;;;;;5063431;28;20025;-76
2023/11/26 10:42:44;;;;;;;17.00;10.55;;;3.50;99.90;;;;;;5060683;28;20064;-75
2023/11/26 10:45:11;;;;;;;20.88;10.93;;;3.50;99.90;;;;;;5061411;28;20572;-76
2023/11/26 10:47:40;;;;;;;17.70;10.40;;;3.50;99.90;;;;;;5060878;28;20094;-75
2023/11/26 10:50:09;;;;;;;17.60;10.23;;;3.60;99.90;;;;;;5059050;28;20174;-74
2023/11/26 10:52:42;;;;;;;18.27;10.63;;;3.60;99.90;;;;;;5061934;28;20088;-76
2023/11/26 10:55:24;;;;;;;17.15;9.90;;;3.60;99.90;;;;;;5060966;28;20040;-75
2023/11/26 10:57:55;;;;;;;21.25;10.27;;;3.70;99.90;;;;;;5062997;28;20037;-76
2023/11/26 11:00:23;;;;;;;21.95;10.65;;;3.70;99.90;;;;;;5062864;28;20028;-76
2023/11/26 11:02:48;;;;;;;18.05;10.10;;;3.70;99.90;;;;;;5062801;28;20020;-74
2023/11/26 11:05:15;;;;;;;18.42;9.63;;;3.70;99.90;;;;;;5061063;28;20061;-76
2023/11/26 11:07:41;;;;;;;20.20;10.85;;;3.80;99.90;;;;;;5061974;28;20044;-76
2023/11/26 11:10:23;;;;;;;18.80;10.35;;;3.80;99.90;;;;;;5062730;28;20112;-76
2023/11/26 11:12:56;;;;;;;21.27;10.95;;;3.80;99.90;;;;;;5063183;28;20021;-75
2023/11/26 11:15:23;;;;;;;24.30;11.05;;;3.90;99.90;;;;;;5063100;28;20029;-76
2023/11/26 11:17:49;;;;;;;19.50;10.88;;;3.80;99.90;;;;;;5061082;28;20497;-76
2023/11/26 11:20:15;;;;;;;21.67;10.93;;;3.80;99.90;;;;;;5061197;28;20720;-74
2023/11/26 11:22:44;;;;;;;18.33;10.75;;;3.80;99.90;;;;;;5061396;28;20025;-76
2023/11/26 11:25:12;;;;;;;20.35;11.20;;;3.80;99.90;;;;;;5061479;28;20044;-76
2023/11/26 11:27:59;;;;;;;19.80;11.57;;;3.90;99.90;;;;;;5062513;28;20024;-75
2023/11/26 11:30:31;;;;;;;24.73;12.45;;;3.80;99.90;;;;;;5060982;28;20041;-75
2023/11/26 11:33:08;;;;;;;26.52;13.77;;;3.90;99.90;;;;;;5062299;28;20084;-76
2023/11/26 11:35:45;;;;;;;25.63;13.57;;;3.90;99.90;;;;;;5062551;28;20031;-75
2023/11/26 11:38:12;;;;;;;22.15;12.52;;;3.90;99.90;;;;;;5061865;28;20041;-75
2023/11/26 11:41:00;;;;;;;29.75;16.75;;;3.90;99.90;;;;;;5061140;28;20029;-75
2023/11/26 11:43:27;;;;;;;27.20;14.60;;;3.90;99.90;;;;;;5062236;28;20037;-77
2023/11/26 11:45:54;;;;;;;27.23;14.82;;;3.90;99.90;;;;;;5061064;28;20048;-74
2023/11/26 11:48:37;;;;;;;25.75;13.25;;;4.00;99.90;;;;;;5062027;28;20024;-76
2023/11/26 11:51:28;;;;;;;28.00;13.90;;;4.00;99.90;;;;;;5061539;28;20045;-74
2023/11/26 11:53:55;;;;;;;26.33;14.48;;;4.00;99.90;;;;;;5060528;28;20036;-76
2023/11/26 11:56:22;;;;;;;30.17;15.98;;;4.00;99.90;;;;;;5062500;28;20377;-75
2023/11/26 11:58:48;;;;;;;26.65;14.48;;;3.90;99.90;;;;;;5061367;28;20024;-74
2023/11/26 12:01:16;;;;;;;27.35;15.00;;;3.90;99.90;;;;;;5059868;28;20044;-75
2023/11/26 12:03:41;;;;;;;29.73;14.85;;;3.90;99.90;;;;;;5054303;28;20048;-74
2023/11/26 12:06:11;;;;;;;24.90;15.55;;;4.00;99.90;;;;;;5060123;28;20025;-74
2023/11/26 12:08:36;;;;;;;30.23;15.43;;;4.00;99.90;;;;;;5059454;28;20029;-73
2023/11/26 12:11:08;;;;;;;27.85;15.18;;;4.00;99.90;;;;;;5060968;28;20017;-75
2023/11/26 12:13:42;;;;;;;32.50;15.95;;;4.00;99.90;;;;;;5060390;28;20040;-75
2023/11/26 12:16:09;;;;;;;31.17;16.10;;;4.00;99.90;;;;;;5059997;28;20025;-74
2023/11/26 12:18:35;;;;;;;39.75;18.50;;;4.00;99.90;;;;;;5056953;28;20103;-74
2023/11/26 12:21:04;;;;;;;40.13;17.77;;;4.00;99.90;;;;;;5055260;28;20030;-76
2023/11/26 12:23:34;;;;;;;34.58;18.13;;;4.00;99.90;;;;;;5061326;28;20036;-75
2023/11/26 12:26:02;;;;;;;38.40;17.13;;;4.00;99.90;;;;;;5058943;28;20028;-76
2023/11/26 12:28:29;;;;;;;30.77;17.45;;;4.00;99.90;;;;;;5060687;28;20051;-77
2023/11/26 12:30:56;;;;;;;38.70;18.10;;;4.00;99.90;;;;;;5060225;28;20397;-76
2023/11/26 12:33:24;;;;;;;44.50;18.80;;;4.00;99.90;;;;;;5059534;28;20033;-75
2023/11/26 12:35:51;;;;;;;35.70;17.95;;;4.00;99.90;;;;;;5059704;28;20024;-76
2023/11/26 12:38:17;;;;;;;34.10;17.65;;;4.00;99.90;;;;;;5058903;28;20052;-76
2023/11/26 12:40:43;;;;;;;33.50;16.88;;;4.10;99.90;;;;;;5059151;28;20131;-75
2023/11/26 12:43:09;;;;;;;37.03;18.45;;;4.10;99.90;;;;;;5060937;28;20032;-78
2023/11/26 12:45:35;;;;;;;35.20;17.13;;;4.10;99.90;;;;;;5061198;28;20024;-76